createdAt,value
2019-01-10T00:00:28.044Z,3.34
2019-01-10T00:01:28.036Z,3.33
2019-01-10T00:02:28.023Z,3.25
2019-01-10T00:03:28.010Z,3.28
2019-01-10T00:04:28.011Z,3.19
2019-01-10T00:05:27.987Z,3.20
2019-01-10T00:06:27.982Z,3.19
2019-01-10T00:07:27.965Z,3.28
2019-01-10T00:08:27.956Z,3.23
2019-01-10T00:09:27.956Z,3.25
2019-01-10T00:10:27.935Z,3.28
2019-01-10T00:11:27.925Z,3.19
2019-01-10T00:12:27.911Z,3.31
2019-01-10T00:13:27.915Z,3.17
2019-01-10T00:14:27.890Z,3.26
2019-01-10T00:15:27.890Z,3.23
2019-01-10T00:16:27.867Z,3.17
2019-01-10T00:17:27.857Z,3.12
2019-01-10T00:18:27.851Z,3.31
2019-01-10T00:19:27.843Z,3.17
2019-01-10T00:20:27.838Z,3.17
2019-01-10T00:21:27.818Z,3.16
2019-01-10T00:22:27.805Z,3.12
2019-01-10T00:23:27.795Z,3.15
2019-01-10T00:24:27.784Z,3.13
2019-01-10T00:25:27.781Z,3.08
2019-01-10T00:26:27.758Z,3.12
2019-01-10T00:27:27.756Z,3.12
2019-01-10T00:28:27.738Z,3.02
2019-01-10T00:29:27.730Z,3.05
2019-01-10T00:30:27.728Z,2.99
2019-01-10T00:31:27.705Z,2.97
2019-01-10T00:32:27.695Z,3.12
2019-01-10T00:33:27.686Z,2.99
2019-01-10T00:34:27.673Z,3.12
2019-01-10T00:35:27.676Z,3.10
2019-01-10T00:36:27.653Z,3.10
2019-01-10T00:37:27.641Z,3.16
2019-01-10T00:38:27.630Z,3.12
2019-01-10T00:39:27.619Z,3.17
2019-01-10T00:40:27.624Z,3.10
2019-01-10T00:41:27.603Z,3.13
2019-01-10T00:42:27.586Z,3.13
2019-01-10T00:43:27.576Z,3.17
2019-01-10T00:44:27.565Z,3.19
2019-01-10T00:45:27.564Z,3.15
2019-01-10T00:46:27.546Z,3.22
2019-01-10T00:47:27.536Z,3.17
2019-01-10T00:48:27.521Z,3.23
2019-01-10T00:49:27.511Z,3.20
2019-01-10T00:50:27.510Z,3.17
2019-01-10T00:51:27.492Z,3.15
2019-01-10T00:52:27.480Z,3.17
2019-01-10T00:53:27.469Z,3.19
2019-01-10T00:54:27.457Z,3.19
2019-01-10T00:55:27.459Z,3.23
2019-01-10T00:56:27.434Z,3.17
2019-01-10T00:57:27.425Z,3.22
2019-01-10T00:58:27.417Z,3.20
2019-01-10T00:59:27.403Z,3.17
2019-01-10T01:00:27.401Z,3.15
2019-01-10T01:01:27.394Z,3.19
2019-01-10T01:02:27.369Z,3.20
2019-01-10T01:03:27.359Z,3.19
2019-01-10T01:04:27.349Z,3.17
2019-01-10T01:05:27.351Z,3.17
2019-01-10T01:06:27.328Z,3.12
2019-01-10T01:07:27.316Z,3.20
2019-01-10T01:08:27.307Z,3.13
2019-01-10T01:09:27.295Z,3.13
2019-01-10T01:10:27.293Z,3.13
2019-01-10T01:11:27.271Z,3.10
2019-01-10T01:12:27.265Z,3.16
2019-01-10T01:13:27.250Z,3.15
2019-01-10T01:14:27.239Z,3.13
2019-01-10T01:15:27.241Z,3.20
2019-01-10T01:16:27.217Z,3.19
2019-01-10T01:17:27.209Z,3.12
2019-01-10T01:18:27.196Z,3.17
2019-01-10T01:19:27.187Z,3.16
2019-01-10T01:20:27.187Z,3.15
2019-01-10T01:21:27.165Z,3.19
2019-01-10T01:22:27.153Z,3.10
2019-01-10T01:23:27.141Z,3.15
2019-01-10T01:24:27.132Z,3.15
2019-01-10T01:25:27.130Z,3.13
2019-01-10T01:26:27.111Z,3.15
2019-01-10T01:27:27.101Z,3.16
2019-01-10T01:28:27.087Z,3.16
2019-01-10T01:29:27.078Z,3.15
2019-01-10T01:30:27.086Z,3.15
2019-01-10T01:31:27.054Z,3.13
2019-01-10T01:32:27.044Z,3.15
2019-01-10T01:33:27.034Z,3.15
2019-01-10T01:34:27.025Z,3.22
2019-01-10T01:35:27.014Z,3.20
2019-01-10T01:36:27.014Z,3.08
2019-01-10T01:37:26.989Z,3.13
2019-01-10T01:38:26.985Z,3.13
2019-01-10T01:39:26.971Z,3.12
2019-01-10T01:40:26.963Z,3.12
2019-01-10T01:41:26.957Z,3.16
2019-01-10T01:42:26.935Z,3.15
2019-01-10T01:43:26.927Z,3.19
2019-01-10T01:44:26.914Z,3.17
2019-01-10T01:45:26.904Z,3.22
2019-01-10T01:46:26.902Z,3.23
2019-01-10T01:47:26.882Z,3.10
2019-01-10T01:48:26.871Z,3.16
2019-01-10T01:49:26.862Z,3.19
2019-01-10T01:52:57.159Z,3.23
2019-01-10T01:53:44.898Z,3.20
2019-01-10T01:57:14.149Z,3.13
2019-01-10T01:58:03.390Z,3.19
2019-01-10T01:59:03.381Z,3.15
2019-01-10T02:00:03.370Z,3.07
2019-01-10T02:01:03.369Z,3.07
2019-01-10T02:02:03.349Z,3.10
2019-01-10T02:03:03.338Z,3.13
2019-01-10T02:04:03.327Z,3.15
2019-01-10T02:05:03.318Z,3.17
2019-01-10T02:06:03.338Z,3.13
2019-01-10T02:07:03.297Z,3.16
2019-01-10T02:08:03.290Z,3.10
2019-01-10T02:09:03.275Z,3.12
2019-01-10T02:10:03.266Z,3.04
2019-01-10T02:11:03.257Z,3.04
2019-01-10T02:12:03.259Z,2.99
2019-01-10T02:13:03.232Z,3.08
2019-01-10T02:14:03.223Z,3.12
2019-01-10T02:15:03.212Z,3.12
2019-01-10T02:16:03.202Z,3.02
2019-01-10T02:17:03.200Z,3.04
2019-01-10T02:18:03.180Z,3.08
2019-01-10T02:19:03.167Z,3.08
2019-01-10T02:20:03.158Z,2.97
2019-01-10T02:21:03.149Z,3.01
2019-01-10T02:22:03.149Z,3.01
2019-01-10T02:23:03.125Z,3.07
2019-01-10T02:24:03.119Z,3.10
2019-01-10T02:25:03.111Z,3.12
2019-01-10T02:26:03.093Z,3.12
2019-01-10T02:27:03.098Z,3.07
2019-01-10T02:28:03.079Z,3.08
2019-01-10T02:29:03.060Z,3.10
2019-01-10T02:30:03.061Z,3.01
2019-01-10T02:31:03.045Z,3.04
2019-01-10T02:32:03.044Z,3.01
2019-01-10T02:33:03.019Z,3.05
2019-01-10T02:34:03.008Z,3.08
2019-01-10T02:35:02.999Z,3.01
2019-01-10T02:36:02.989Z,3.04
2019-01-10T02:37:02.989Z,3.08
2019-01-10T02:38:02.968Z,2.97
2019-01-10T02:39:02.957Z,3.07
2019-01-10T02:40:02.945Z,3.04
2019-01-10T02:41:02.934Z,3.16
2019-01-10T02:42:02.934Z,3.10
2019-01-10T02:43:02.921Z,3.02
2019-01-10T02:44:02.905Z,2.97
2019-01-10T02:45:02.894Z,2.98
2019-01-10T02:46:02.889Z,3.12
2019-01-10T02:47:02.885Z,3.12
2019-01-10T02:48:02.861Z,3.01
2019-01-10T02:49:02.850Z,3.05
2019-01-10T02:50:02.845Z,3.01
2019-01-10T02:51:02.828Z,3.02
2019-01-10T02:52:02.830Z,3.02
2019-01-10T02:53:02.810Z,2.97
2019-01-10T02:54:02.811Z,2.92
2019-01-10T02:55:02.785Z,2.92
2019-01-10T02:56:02.777Z,2.95
2019-01-10T02:57:02.776Z,3.02
2019-01-10T02:58:02.767Z,2.95
2019-01-10T02:59:02.744Z,2.87
2019-01-10T03:00:02.735Z,2.94
2019-01-10T03:01:02.726Z,2.94
2019-01-10T03:02:02.757Z,2.99
2019-01-10T03:03:02.703Z,2.95
2019-01-10T03:04:02.693Z,3.04
2019-01-10T03:05:02.680Z,3.05
2019-01-10T03:06:02.672Z,2.97
2019-01-10T03:07:02.675Z,2.90
2019-01-10T03:08:02.661Z,2.97
2019-01-10T03:09:02.638Z,2.99
2019-01-10T03:10:02.632Z,2.92
2019-01-10T03:11:02.619Z,2.95
2019-01-10T03:12:02.619Z,3.08
2019-01-10T03:13:02.594Z,3.04
2019-01-10T03:14:02.587Z,3.08
2019-01-10T03:15:02.573Z,3.07
2019-01-10T03:16:02.577Z,2.97
2019-01-10T03:17:02.562Z,3.02
2019-01-10T03:18:02.541Z,3.02
2019-01-10T03:19:02.530Z,2.89
2019-01-10T03:20:02.521Z,3.01
2019-01-10T03:21:02.509Z,2.92
2019-01-10T03:22:02.511Z,3.04
2019-01-10T03:23:02.487Z,3.08
2019-01-10T03:24:02.478Z,3.04
2019-01-10T03:25:02.474Z,3.05
2019-01-10T03:26:02.456Z,3.01
2019-01-10T03:27:02.478Z,3.05
2019-01-10T03:28:02.436Z,3.05
2019-01-10T03:29:02.424Z,3.04
2019-01-10T03:30:02.414Z,2.92
2019-01-10T03:31:02.412Z,2.95
2019-01-10T03:32:02.392Z,3.05
2019-01-10T03:33:02.407Z,3.04
2019-01-10T03:34:02.371Z,3.07
2019-01-10T03:35:02.368Z,3.04
2019-01-10T03:36:02.350Z,2.99
2019-01-10T03:37:02.340Z,3.04
2019-01-10T03:38:11.181Z,3.04
2019-01-10T03:39:02.319Z,2.95
2019-01-10T03:40:02.307Z,3.04
2019-01-10T03:41:02.296Z,3.08
2019-01-10T03:42:02.284Z,2.99
2019-01-10T03:43:02.282Z,2.92
2019-01-10T03:44:11.695Z,2.92
2019-01-10T03:45:02.253Z,2.92
2019-01-10T03:46:02.248Z,2.98
2019-01-10T03:47:02.231Z,2.98
2019-01-10T03:48:02.234Z,2.87
2019-01-10T03:49:02.220Z,3.02
2019-01-10T03:50:02.201Z,2.92
2019-01-10T03:51:02.192Z,2.95
2019-01-10T03:52:02.182Z,2.98
2019-01-10T03:53:02.178Z,2.94
2019-01-10T03:54:11.223Z,2.94
2019-01-10T03:55:02.154Z,2.95
2019-01-10T03:56:02.138Z,2.94
2019-01-10T03:57:02.127Z,2.87
2019-01-10T03:58:02.127Z,2.90
2019-01-10T03:59:02.105Z,2.90
2019-01-10T04:00:02.096Z,2.86
2019-01-10T04:01:02.082Z,2.84
2019-01-10T04:02:02.074Z,2.86
2019-01-10T04:03:02.075Z,2.83
2019-01-10T04:04:02.054Z,2.86
2019-01-10T04:05:02.045Z,2.83
2019-01-10T04:06:02.031Z,2.86
2019-01-10T04:07:02.020Z,2.86
2019-01-10T04:08:02.022Z,2.86
2019-01-10T04:09:02.000Z,2.81
2019-01-10T04:10:01.986Z,2.80
2019-01-10T04:11:01.979Z,2.80
2019-01-10T04:12:03.397Z,2.79
2019-01-10T04:13:01.982Z,2.86
2019-01-10T04:14:01.945Z,2.74
2019-01-10T04:15:01.934Z,2.86
2019-01-10T04:16:01.925Z,2.81
2019-01-10T04:17:01.915Z,2.87
2019-01-10T04:18:01.917Z,2.84
2019-01-10T04:19:01.894Z,2.83
2019-01-10T04:20:01.884Z,2.84
2019-01-10T04:21:01.871Z,2.69
2019-01-10T04:22:01.865Z,2.73
2019-01-10T04:23:01.865Z,2.69
2019-01-10T04:24:01.841Z,2.74
2019-01-10T04:25:01.831Z,2.79
2019-01-10T04:26:01.816Z,2.74
2019-01-10T04:27:01.807Z,2.76
2019-01-10T04:28:01.806Z,2.74
2019-01-10T04:29:01.785Z,2.76
2019-01-10T04:30:01.776Z,2.76
2019-01-10T04:31:01.767Z,2.76
2019-01-10T04:32:01.754Z,2.77
2019-01-10T04:33:01.753Z,2.74
2019-01-10T04:34:01.731Z,2.74
2019-01-10T04:35:01.722Z,2.81
2019-01-10T04:36:01.716Z,2.80
2019-01-10T04:37:01.705Z,2.69
2019-01-10T04:38:01.700Z,2.79
2019-01-10T04:39:01.678Z,2.79
2019-01-10T04:40:01.672Z,2.84
2019-01-10T04:41:01.671Z,2.86
2019-01-10T04:42:01.647Z,2.84
2019-01-10T04:43:01.648Z,2.87
2019-01-10T04:44:06.970Z,2.84
2019-01-10T04:45:02.614Z,2.86
2019-01-10T04:46:01.602Z,2.83
2019-01-10T04:47:01.663Z,2.81
2019-01-10T04:48:01.793Z,2.79
2019-01-10T04:49:01.576Z,2.79
2019-01-10T04:50:01.565Z,2.87
2019-01-10T04:51:01.550Z,2.74
2019-01-10T04:52:01.559Z,2.71
2019-01-10T04:53:01.533Z,2.73
2019-01-10T04:54:01.531Z,2.73
2019-01-10T04:55:01.513Z,2.65
2019-01-10T04:56:01.499Z,2.77
2019-01-10T04:57:01.488Z,2.77
2019-01-10T04:58:01.475Z,2.69
2019-01-10T04:59:01.477Z,2.71
2019-01-10T05:00:01.478Z,2.69
2019-01-10T05:01:01.448Z,2.68
2019-01-10T05:02:01.436Z,2.59
2019-01-10T05:03:01.422Z,2.68
2019-01-10T05:04:01.427Z,2.68
2019-01-10T05:05:01.877Z,2.68
2019-01-10T05:06:01.389Z,2.79
2019-01-10T05:07:01.381Z,2.68
2019-01-10T05:08:01.366Z,2.63
2019-01-10T05:09:01.370Z,2.73
2019-01-10T05:10:01.348Z,2.87
2019-01-10T05:11:01.340Z,2.71
2019-01-10T05:12:01.325Z,2.68
2019-01-10T05:13:01.317Z,2.73
2019-01-10T05:14:01.314Z,2.79
2019-01-10T05:15:01.296Z,2.73
2019-01-10T05:16:01.286Z,2.71
2019-01-10T05:17:01.280Z,2.66
2019-01-10T05:18:01.270Z,2.71
2019-01-10T05:19:01.273Z,2.69
2019-01-10T05:20:01.243Z,2.66
2019-01-10T05:21:01.230Z,2.74
2019-01-10T05:22:01.221Z,2.69
2019-01-10T05:23:01.210Z,2.71
2019-01-10T05:24:01.210Z,2.65
2019-01-10T05:25:01.187Z,2.66
2019-01-10T05:26:01.178Z,2.68
2019-01-10T05:27:01.173Z,2.65
2019-01-10T05:28:01.161Z,2.69
2019-01-10T05:29:01.159Z,2.73
2019-01-10T05:30:01.138Z,2.68
2019-01-10T05:31:01.122Z,2.73
2019-01-10T05:32:02.558Z,2.76
2019-01-10T05:33:01.109Z,2.74
2019-01-10T05:34:01.105Z,2.71
2019-01-10T05:35:01.083Z,2.71
2019-01-10T05:36:01.076Z,2.68
2019-01-10T05:37:01.060Z,2.68
2019-01-10T05:38:01.056Z,2.59
2019-01-10T05:39:01.052Z,2.71
2019-01-10T05:40:01.030Z,2.68
2019-01-10T05:41:01.021Z,2.63
2019-01-10T05:42:01.015Z,2.66
2019-01-10T05:43:00.996Z,2.61
2019-01-10T05:44:01.003Z,2.66
2019-01-10T05:45:00.974Z,2.63
2019-01-10T05:46:00.971Z,2.68
2019-01-10T05:47:00.953Z,2.66
2019-01-10T05:48:00.954Z,2.65
2019-01-10T05:49:00.945Z,2.66
2019-01-10T05:50:00.922Z,2.66
2019-01-10T05:51:00.916Z,2.69
2019-01-10T05:52:00.904Z,2.63
2019-01-10T05:53:00.892Z,2.77
2019-01-10T05:54:00.896Z,2.73
2019-01-10T05:55:00.889Z,2.73
2019-01-10T05:56:00.858Z,2.66
2019-01-10T05:57:00.903Z,2.63
2019-01-10T05:58:00.837Z,2.73
2019-01-10T05:59:00.843Z,2.68
2019-01-10T06:00:00.819Z,2.59
2019-01-10T06:01:00.803Z,2.65
2019-01-10T06:02:00.797Z,2.59
2019-01-10T06:03:00.785Z,2.69
2019-01-10T06:04:00.784Z,2.68
2019-01-10T06:05:00.771Z,2.73
2019-01-10T06:06:00.752Z,2.76
2019-01-10T06:07:00.741Z,2.68
2019-01-10T06:08:00.732Z,2.81
2019-01-10T06:09:00.760Z,2.76
2019-01-10T06:10:00.713Z,2.80
2019-01-10T06:11:00.699Z,2.74
2019-01-10T06:12:00.686Z,2.74
2019-01-10T06:13:00.679Z,2.83
2019-01-10T06:14:00.667Z,2.89
2019-01-10T06:15:00.672Z,2.80
2019-01-10T06:16:00.645Z,2.84
2019-01-10T06:17:00.635Z,2.87
2019-01-10T06:18:00.624Z,2.86
2019-01-10T06:19:00.616Z,2.87
2019-01-10T06:20:00.611Z,2.86
2019-01-10T06:21:00.593Z,2.80
2019-01-10T06:22:00.603Z,2.74
2019-01-10T06:23:00.569Z,2.73
2019-01-10T06:24:00.559Z,2.76
2019-01-10T06:25:00.564Z,2.76
2019-01-10T06:26:00.541Z,2.74
2019-01-10T06:27:00.531Z,2.74
2019-01-10T06:28:00.516Z,2.83
2019-01-10T06:29:00.509Z,2.74
2019-01-10T06:30:00.509Z,2.74
2019-01-10T06:31:00.484Z,2.76
2019-01-10T06:32:00.474Z,2.69
2019-01-10T06:33:00.465Z,2.77
2019-01-10T06:34:00.456Z,2.73
2019-01-10T06:35:00.462Z,2.73
2019-01-10T06:36:00.438Z,2.74
2019-01-10T06:37:00.419Z,2.86
2019-01-10T06:38:00.423Z,2.73
2019-01-10T06:39:00.404Z,2.77
2019-01-10T06:40:00.406Z,2.74
2019-01-10T06:41:00.378Z,2.73
2019-01-10T06:42:00.366Z,2.74
2019-01-10T06:43:00.357Z,2.87
2019-01-10T06:44:00.348Z,2.74
2019-01-10T06:45:00.370Z,2.76
2019-01-10T06:46:00.324Z,2.74
2019-01-10T06:47:00.314Z,2.68
2019-01-10T06:48:00.304Z,2.61
2019-01-10T06:49:00.293Z,2.74
2019-01-10T06:50:00.292Z,2.68
2019-01-10T06:51:00.295Z,2.69
2019-01-10T06:52:00.264Z,2.66
2019-01-10T06:53:00.258Z,2.71
2019-01-10T06:54:00.245Z,2.69
2019-01-10T06:55:00.243Z,2.68
2019-01-10T06:56:00.218Z,2.68
2019-01-10T06:57:00.213Z,2.68
2019-01-10T06:58:00.199Z,2.68
2019-01-10T06:59:00.186Z,2.69
2019-01-10T07:00:00.304Z,2.73
2019-01-10T07:01:00.167Z,2.69
2019-01-10T07:02:00.157Z,2.68
2019-01-10T07:03:00.146Z,2.68
2019-01-10T07:04:00.138Z,2.53
2019-01-10T07:05:00.289Z,2.65
2019-01-10T07:06:00.122Z,2.69
2019-01-10T07:07:00.184Z,2.63
2019-01-10T07:08:00.099Z,2.63
2019-01-10T07:09:00.092Z,2.61
2019-01-10T07:10:00.282Z,2.58
2019-01-10T07:11:00.064Z,2.56
2019-01-10T07:12:00.059Z,2.61
2019-01-10T07:13:00.049Z,2.51
2019-01-10T07:14:00.028Z,2.55
2019-01-10T07:15:00.032Z,2.61
2019-01-10T07:16:00.024Z,2.56
2019-01-10T07:16:59.998Z,2.58
2019-01-10T07:17:59.987Z,2.59
2019-01-10T07:18:59.980Z,2.50
2019-01-10T07:19:59.968Z,2.58
2019-01-10T07:20:59.973Z,2.53
2019-01-10T07:21:59.990Z,2.56
2019-01-10T07:22:59.985Z,2.58
2019-01-10T07:23:59.938Z,2.45
2019-01-10T07:24:59.920Z,2.61
2019-01-10T07:25:59.941Z,2.56
2019-01-10T07:26:59.916Z,2.58
2019-01-10T07:27:59.887Z,2.59
2019-01-10T07:28:59.880Z,2.44
2019-01-10T07:29:59.910Z,2.61
2019-01-10T07:30:59.870Z,2.58
2019-01-10T07:31:59.847Z,2.56
2019-01-10T07:32:59.833Z,2.50
2019-01-10T07:33:59.835Z,2.51
2019-01-10T07:34:59.821Z,2.48
2019-01-10T07:35:59.836Z,2.55
2019-01-10T07:36:59.830Z,2.58
2019-01-10T07:37:59.788Z,2.53
2019-01-10T07:38:59.806Z,2.58
2019-01-10T07:39:59.762Z,2.48
2019-01-10T07:40:59.801Z,2.58
2019-01-10T07:41:59.742Z,2.51
2019-01-10T07:42:59.760Z,2.56
2019-01-10T07:43:59.726Z,2.58
2019-01-10T07:45:02.849Z,2.48
2019-01-10T07:45:59.718Z,2.45
2019-01-10T07:46:59.687Z,2.53
2019-01-10T07:47:59.680Z,2.36
2019-01-10T07:48:59.676Z,2.30
2019-01-10T07:49:59.664Z,2.38
2019-01-10T07:50:59.709Z,2.30
2019-01-10T07:51:59.639Z,2.33
2019-01-10T07:52:59.635Z,2.36
2019-01-10T07:53:59.660Z,2.29
2019-01-10T07:54:59.630Z,2.40
2019-01-10T07:55:59.705Z,2.30
2019-01-10T07:56:59.580Z,2.37
2019-01-10T07:57:59.654Z,2.30
2019-01-10T07:58:59.588Z,2.37
2019-01-10T07:59:59.547Z,2.37
2019-01-10T08:00:59.560Z,2.41
2019-01-10T08:01:59.541Z,2.41
2019-01-10T08:02:59.520Z,2.50
2019-01-10T08:03:59.607Z,2.38
2019-01-10T08:04:59.531Z,2.41
2019-01-10T08:05:59.526Z,2.37
2019-01-10T08:06:59.473Z,2.37
2019-01-10T08:07:59.544Z,2.36
2019-01-10T08:08:59.705Z,2.36
2019-01-10T08:09:59.453Z,2.36
2019-01-10T08:10:59.524Z,2.37
2019-01-10T08:12:00.666Z,2.38
2019-01-10T08:12:59.414Z,2.43
2019-01-10T08:13:59.427Z,2.41
2019-01-10T08:14:59.393Z,2.41
2019-01-10T08:15:59.392Z,2.38
2019-01-10T08:16:59.396Z,2.40
2019-01-10T08:17:59.367Z,2.44
2019-01-10T08:18:59.366Z,2.53
2019-01-10T08:19:59.373Z,2.55
2019-01-10T08:20:59.333Z,2.44
2019-01-10T08:21:59.364Z,2.48
2019-01-10T08:22:59.306Z,2.59
2019-01-10T08:23:59.293Z,2.58
2019-01-10T08:24:59.309Z,2.62
2019-01-10T08:25:59.326Z,2.55
2019-01-10T08:26:59.283Z,2.58
2019-01-10T08:27:59.256Z,2.53
2019-01-10T08:28:59.283Z,2.53
2019-01-10T08:29:59.233Z,2.56
2019-01-10T08:30:59.235Z,2.59
2019-01-10T08:31:59.227Z,2.48
2019-01-10T08:32:59.213Z,2.53
2019-01-10T08:33:59.186Z,2.36
2019-01-10T08:34:59.172Z,2.50
2019-01-10T08:35:59.166Z,2.40
2019-01-10T08:36:59.184Z,2.45
2019-01-10T08:37:59.141Z,2.40
2019-01-10T08:38:59.145Z,2.30
2019-01-10T08:39:59.120Z,2.37
2019-01-10T08:40:59.106Z,2.41
2019-01-10T08:41:59.111Z,2.40
2019-01-10T08:42:59.090Z,2.38
2019-01-10T08:43:59.087Z,2.37
2019-01-10T08:44:59.105Z,2.43
2019-01-10T08:45:59.056Z,2.50
2019-01-10T08:46:59.051Z,2.45
2019-01-10T08:47:59.050Z,2.50
2019-01-10T08:48:59.028Z,2.47
2019-01-10T08:49:59.011Z,2.36
2019-01-10T08:50:59.001Z,2.38
2019-01-10T08:51:59.007Z,2.37
2019-01-10T08:52:58.992Z,2.41
2019-01-10T08:53:58.969Z,2.51
2019-01-10T08:54:58.956Z,2.51
2019-01-10T08:55:58.956Z,2.47
2019-01-10T08:56:58.982Z,2.53
2019-01-10T08:57:58.927Z,2.59
2019-01-10T08:58:58.916Z,2.55
2019-01-10T08:59:58.945Z,2.56
2019-01-10T09:00:58.895Z,2.56
2019-01-10T09:01:58.895Z,2.53
2019-01-10T09:02:58.873Z,2.53
2019-01-10T09:03:58.870Z,2.55
2019-01-10T09:04:58.848Z,2.59
2019-01-10T09:06:07.876Z,2.59
2019-01-10T09:06:59.833Z,2.58
2019-01-10T09:07:58.814Z,2.56
2019-01-10T09:09:01.043Z,2.61
2019-01-10T09:09:58.791Z,2.53
2019-01-10T09:10:58.783Z,2.55
2019-01-10T09:11:58.790Z,2.56
2019-01-10T09:12:58.763Z,2.51
2019-01-10T09:13:58.752Z,2.51
2019-01-10T09:14:58.741Z,2.53
2019-01-10T09:15:58.728Z,2.51
2019-01-10T09:16:58.732Z,2.62
2019-01-10T09:17:58.713Z,2.58
2019-01-10T09:18:58.704Z,2.56
2019-01-10T09:19:58.686Z,2.71
2019-01-10T09:21:04.245Z,2.69
2019-01-10T09:21:59.674Z,2.73
2019-01-10T09:22:58.658Z,2.80
2019-01-10T09:23:58.649Z,2.71
2019-01-10T09:24:58.644Z,2.77
2019-01-10T09:25:58.624Z,2.74
2019-01-10T09:26:58.671Z,2.69
2019-01-10T09:27:58.602Z,2.84
2019-01-10T09:28:58.592Z,2.87
2019-01-10T09:29:58.582Z,2.95
2019-01-10T09:30:58.576Z,2.89
2019-01-10T09:31:58.563Z,2.95
2019-01-10T09:32:58.562Z,2.90
2019-01-10T09:33:58.538Z,2.92
2019-01-10T09:34:58.527Z,2.92
2019-01-10T09:35:58.517Z,2.99
2019-01-10T09:36:58.511Z,3.01
2019-01-10T09:37:58.568Z,3.22
2019-01-10T09:38:58.575Z,3.20
2019-01-10T09:39:58.513Z,3.34
2019-01-10T09:40:58.472Z,3.34
2019-01-10T09:41:58.494Z,3.34
2019-01-10T09:42:58.460Z,3.37
2019-01-10T09:43:58.485Z,3.52
2019-01-10T09:44:58.472Z,3.60
2019-01-10T09:45:58.417Z,3.63
2019-01-10T09:46:58.418Z,3.59
2019-01-10T09:47:58.461Z,3.68
2019-01-10T09:48:58.441Z,3.71
2019-01-10T09:49:58.414Z,3.68
2019-01-10T09:50:58.378Z,3.67
2019-01-10T09:51:58.410Z,3.68
2019-01-10T09:52:58.368Z,3.62
2019-01-10T09:53:58.377Z,3.62
2019-01-10T09:55:07.756Z,3.49
2019-01-10T09:55:58.299Z,3.52
2019-01-10T09:56:58.291Z,3.53
2019-01-10T09:57:58.290Z,3.53
2019-01-10T09:58:58.271Z,3.42
2019-01-10T09:59:58.260Z,3.52
2019-01-10T10:00:58.270Z,3.50
2019-01-10T10:01:58.397Z,3.39
2019-01-10T10:02:58.236Z,3.39
2019-01-10T10:03:58.214Z,3.33
2019-01-10T10:04:58.216Z,3.23
2019-01-10T10:06:07.352Z,3.25
2019-01-10T10:06:59.186Z,3.19
2019-01-10T10:07:58.191Z,3.13
2019-01-10T10:08:58.251Z,3.16
2019-01-10T10:09:58.151Z,3.15
2019-01-10T10:10:58.140Z,3.10
2019-01-10T10:11:58.132Z,3.16
2019-01-10T10:12:58.132Z,3.13
2019-01-10T10:13:58.108Z,3.19
2019-01-10T10:14:58.098Z,3.17
2019-01-10T10:15:58.093Z,3.19
2019-01-10T10:16:58.078Z,3.20
2019-01-10T10:17:58.079Z,3.28
2019-01-10T10:18:58.055Z,3.22
2019-01-10T10:19:58.044Z,3.25
2019-01-10T10:20:58.045Z,3.12
2019-01-10T10:21:58.026Z,3.04
2019-01-10T10:22:58.025Z,3.04
2019-01-10T10:23:58.001Z,3.05
2019-01-10T10:24:57.990Z,2.92
2019-01-10T10:25:57.980Z,2.80
2019-01-10T10:26:57.970Z,2.81
2019-01-10T10:27:57.970Z,2.81
2019-01-10T10:28:57.948Z,2.68
2019-01-10T10:29:57.945Z,2.74
2019-01-10T10:30:57.925Z,2.79
2019-01-10T10:31:57.914Z,2.71
2019-01-10T10:32:57.921Z,2.74
2019-01-10T10:33:57.898Z,2.76
2019-01-10T10:34:57.883Z,2.71
2019-01-10T10:35:57.877Z,2.65
2019-01-10T10:36:57.863Z,2.74
2019-01-10T10:37:57.866Z,2.87
2019-01-10T10:38:57.843Z,2.83
2019-01-10T10:39:57.834Z,2.86
2019-01-10T10:40:57.823Z,2.80
2019-01-10T10:41:57.823Z,2.90
2019-01-10T10:42:57.810Z,2.92
2019-01-10T10:43:57.789Z,2.86
2019-01-10T10:44:57.778Z,2.90
2019-01-10T10:46:01.720Z,3.02
2019-01-10T10:46:57.759Z,2.98
2019-01-10T10:47:57.784Z,3.12
2019-01-10T10:48:57.736Z,3.17
2019-01-10T10:49:57.727Z,3.23
2019-01-10T10:50:57.712Z,3.19
2019-01-10T10:51:57.710Z,3.33
2019-01-10T10:52:57.697Z,3.33
2019-01-10T10:53:57.694Z,3.30
2019-01-10T10:54:57.671Z,3.37
2019-01-10T10:55:57.661Z,3.42
2019-01-10T10:56:57.670Z,3.39
2019-01-10T10:57:57.645Z,3.49
2019-01-10T10:58:57.645Z,3.45
2019-01-10T10:59:57.617Z,3.54
2019-01-10T11:00:57.606Z,3.56
2019-01-10T11:01:57.599Z,3.59
2019-01-10T11:02:57.585Z,3.62
2019-01-10T11:03:57.585Z,3.62
2019-01-10T11:04:57.565Z,3.60
2019-01-10T11:05:57.556Z,3.70
2019-01-10T11:06:57.544Z,3.74
2019-01-10T11:07:57.533Z,3.77
2019-01-10T11:08:57.536Z,3.75
2019-01-10T11:09:57.511Z,4.00
2019-01-10T11:10:57.502Z,3.93
2019-01-10T11:11:57.491Z,3.89
2019-01-10T11:12:57.480Z,3.80
2019-01-10T11:13:57.482Z,3.90
2019-01-10T11:14:57.458Z,3.96
2019-01-10T11:15:57.449Z,4.29
2019-01-10T11:16:57.437Z,4.32
2019-01-10T11:17:57.427Z,4.26
2019-01-10T11:18:57.427Z,4.47
2019-01-10T11:19:57.406Z,4.53
2019-01-10T11:20:57.394Z,4.44
2019-01-10T11:21:57.381Z,4.56
2019-01-10T11:22:57.374Z,4.49
2019-01-10T11:23:57.372Z,4.46
2019-01-10T11:24:57.349Z,4.35
2019-01-10T11:25:57.343Z,4.42
2019-01-10T11:26:57.333Z,4.44
2019-01-10T11:27:57.320Z,4.59
2019-01-10T11:28:57.319Z,4.71
2019-01-10T11:29:57.296Z,4.79
2019-01-10T11:30:57.295Z,4.71
2019-01-10T11:31:57.276Z,4.75
2019-01-10T11:32:57.272Z,4.71
2019-01-10T11:33:57.265Z,4.67
2019-01-10T11:34:57.245Z,4.68
2019-01-10T11:35:57.229Z,4.79
2019-01-10T11:36:57.221Z,4.69
2019-01-10T11:37:57.211Z,4.62
2019-01-10T11:38:57.213Z,4.49
2019-01-10T11:39:57.188Z,4.38
2019-01-10T11:40:57.198Z,4.34
2019-01-10T11:41:57.170Z,4.32
2019-01-10T11:42:57.158Z,4.24
2019-01-10T11:43:57.156Z,4.26
2019-01-10T11:44:57.134Z,4.13
2019-01-10T11:45:57.129Z,4.10
2019-01-10T11:46:57.112Z,3.93
2019-01-10T11:47:57.101Z,3.95
2019-01-10T11:48:57.099Z,4.02
2019-01-10T11:49:57.081Z,4.06
2019-01-10T11:50:57.080Z,4.08
2019-01-10T11:51:57.060Z,4.13
2019-01-10T11:52:57.051Z,4.18
2019-01-10T11:53:57.050Z,4.18
2019-01-10T11:54:57.032Z,4.16
2019-01-10T11:55:57.015Z,4.14
2019-01-10T11:56:57.006Z,4.10
2019-01-10T11:57:56.994Z,4.17
2019-01-10T11:58:57.003Z,4.17
2019-01-10T11:59:56.975Z,4.21
2019-01-10T12:00:56.969Z,4.24
2019-01-10T12:01:56.953Z,4.29
2019-01-10T12:02:56.943Z,4.29
2019-01-10T12:03:56.979Z,4.21
2019-01-10T12:04:56.920Z,4.36
2019-01-10T12:05:56.912Z,4.32
2019-01-10T12:06:56.901Z,4.35
2019-01-10T12:07:56.889Z,4.36
2019-01-10T12:08:56.879Z,4.34
2019-01-10T12:09:56.880Z,4.36
2019-01-10T12:10:56.974Z,4.35
2019-01-10T12:11:56.851Z,4.29
2019-01-10T12:12:56.836Z,4.32
2019-01-10T12:13:56.827Z,4.29
2019-01-10T12:14:56.826Z,5.24
2019-01-10T12:15:56.807Z,6.39
2019-01-10T12:16:56.794Z,7.37
2019-01-10T12:17:56.782Z,7.16
2019-01-10T12:18:59.313Z,6.82
2019-01-10T12:19:56.774Z,7.33
2019-01-10T12:20:56.753Z,8.47
2019-01-10T12:21:56.743Z,9.48
2019-01-10T12:22:56.727Z,10.22
2019-01-10T12:23:56.719Z,10.90
2019-01-10T12:24:56.719Z,11.39
2019-01-10T12:25:56.701Z,11.08
2019-01-10T12:26:56.688Z,10.44
2019-01-10T12:27:56.679Z,9.50
2019-01-10T12:28:56.664Z,8.96
2019-01-10T12:29:56.662Z,8.31
2019-01-10T12:30:56.642Z,7.84
2019-01-10T12:31:56.632Z,7.36
2019-01-10T12:32:56.664Z,7.14
2019-01-10T12:33:56.609Z,7.01
2019-01-10T12:34:56.611Z,6.87
2019-01-10T12:35:56.591Z,6.75
2019-01-10T12:37:00.552Z,6.50
2019-01-10T12:37:56.565Z,6.28
2019-01-10T12:38:56.571Z,6.05
2019-01-10T12:39:56.565Z,5.81
2019-01-10T12:40:56.536Z,5.66
2019-01-10T12:41:56.524Z,5.63
2019-01-10T12:42:56.512Z,5.42
2019-01-10T12:43:56.501Z,5.40
2019-01-10T12:44:56.507Z,5.23
2019-01-10T12:45:56.480Z,5.22
2019-01-10T12:46:56.475Z,5.17
2019-01-10T12:47:56.459Z,5.17
2019-01-10T12:48:56.451Z,5.12
2019-01-10T12:49:56.448Z,5.01
2019-01-10T12:50:56.475Z,5.02
2019-01-10T12:51:56.417Z,5.09
2019-01-10T12:52:56.405Z,5.05
2019-01-10T12:53:56.395Z,4.97
2019-01-10T12:54:56.400Z,4.97
2019-01-10T12:55:56.373Z,5.02
2019-01-10T12:56:56.367Z,4.97
2019-01-10T12:57:56.353Z,5.02
2019-01-10T12:58:56.343Z,4.97
2019-01-10T12:59:56.358Z,4.87
2019-01-10T13:00:56.322Z,5.01
2019-01-10T13:01:56.308Z,4.91
2019-01-10T13:02:56.300Z,4.83
2019-01-10T13:03:56.370Z,4.84
2019-01-10T13:04:56.275Z,4.86
2019-01-10T13:05:56.275Z,4.83
2019-01-10T13:06:56.255Z,4.86
2019-01-10T13:08:03.305Z,4.90
2019-01-10T13:08:57.232Z,4.88
2019-01-10T13:09:56.223Z,4.90
2019-01-10T13:10:56.311Z,4.90
2019-01-10T13:11:56.346Z,4.83
2019-01-10T13:12:56.785Z,4.79
2019-01-10T13:13:56.182Z,4.79
2019-01-10T13:14:56.225Z,4.79
2019-01-10T13:15:56.239Z,4.72
2019-01-10T13:16:56.149Z,4.79
2019-01-10T13:17:56.139Z,4.74
2019-01-10T13:18:56.146Z,4.67
2019-01-10T13:19:56.765Z,4.68
2019-01-10T13:20:56.123Z,4.65
2019-01-10T13:21:56.093Z,4.56
2019-01-10T13:22:56.083Z,4.59